createdAt,value
2024-04-19T00:00:23.200Z,4.30
2024-04-19T00:03:26.966Z,3.83
2024-04-19T00:06:30.750Z,4.20
2024-04-19T00:09:34.331Z,3.72
2024-04-19T00:12:37.881Z,3.93
2024-04-19T00:15:44.018Z,4.20
2024-04-19T00:18:48.054Z,3.85
2024-04-19T00:21:51.650Z,4.22
2024-04-19T00:24:55.175Z,3.70
2024-04-19T00:27:58.667Z,4.10
2024-04-19T00:31:02.959Z,3.90
2024-04-19T00:34:06.719Z,5.43
2024-04-19T00:37:10.276Z,4.78
2024-04-19T00:40:13.801Z,3.97
2024-04-19T00:43:17.352Z,4.13
2024-04-19T00:46:20.924Z,3.83
2024-04-19T00:49:24.504Z,3.92
2024-04-19T00:52:28.342Z,3.70
2024-04-19T00:55:32.768Z,3.88
2024-04-19T00:58:36.595Z,4.10
2024-04-19T01:01:40.590Z,4.10
2024-04-19T01:04:44.286Z,3.78
2024-04-19T01:07:49.048Z,4.13
2024-04-19T01:10:53.211Z,4.03
2024-04-19T01:13:57.182Z,3.83
2024-04-19T01:17:00.673Z,4.20
2024-04-19T01:20:04.427Z,3.83
2024-04-19T01:23:15.809Z,4.10
2024-04-19T01:26:19.310Z,4.07
2024-04-19T01:29:22.832Z,4.63
2024-04-19T01:32:26.353Z,3.87
2024-04-19T01:35:29.902Z,3.92
2024-04-19T01:38:33.413Z,4.15
2024-04-19T01:41:37.198Z,4.82
2024-04-19T01:44:40.706Z,4.40
2024-04-19T01:47:44.577Z,4.53
2024-04-19T01:50:48.127Z,4.68
2024-04-19T01:53:51.624Z,4.22
2024-04-19T01:57:01.221Z,4.72
2024-04-19T02:00:05.756Z,4.80
2024-04-19T02:03:15.046Z,4.47
2024-04-19T02:06:18.594Z,4.45
2024-04-19T02:09:22.183Z,4.55
2024-04-19T02:12:25.750Z,4.38
2024-04-19T02:15:29.363Z,4.97
2024-04-19T02:18:33.081Z,4.53
2024-04-19T02:21:36.708Z,4.47
2024-04-19T02:24:40.330Z,4.60
2024-04-19T02:28:04.105Z,4.60
2024-04-19T02:31:07.645Z,5.00
2024-04-19T02:34:11.251Z,4.67
2024-04-19T02:37:14.789Z,5.38
2024-04-19T02:40:18.297Z,5.22
2024-04-19T02:43:21.809Z,5.60
2024-04-19T02:46:37.706Z,5.27
2024-04-19T02:49:41.251Z,5.22
2024-04-19T02:52:44.834Z,5.57
2024-04-19T02:55:49.265Z,5.60
2024-04-19T02:58:54.530Z,5.28
2024-04-19T03:01:58.069Z,5.03
2024-04-19T03:05:09.374Z,4.63
2024-04-19T03:08:13.169Z,5.40
2024-04-19T03:11:16.795Z,4.93
2024-04-19T03:14:20.411Z,4.75
2024-04-19T03:17:24.033Z,5.17
2024-04-19T03:20:27.675Z,5.67
2024-04-19T03:23:31.371Z,5.80
2024-04-19T03:26:37.627Z,5.57
2024-04-19T03:29:41.299Z,5.13
2024-04-19T03:32:44.848Z,5.50
2024-04-19T03:35:48.412Z,5.93
2024-04-19T03:38:52.206Z,5.22
2024-04-19T03:41:57.854Z,5.00
2024-04-19T03:45:19.920Z,5.63
2024-04-19T03:48:23.549Z,5.10
2024-04-19T03:51:27.088Z,5.07
2024-04-19T03:54:30.699Z,5.65
2024-04-19T03:57:34.330Z,5.65
2024-04-19T04:00:40.664Z,5.80
2024-04-19T04:03:44.522Z,5.97
2024-04-19T04:06:48.169Z,6.17
2024-04-19T04:09:51.776Z,6.15
2024-04-19T04:12:57.687Z,6.07
2024-04-19T04:16:01.664Z,5.75
2024-04-19T04:19:05.707Z,5.27
2024-04-19T04:22:09.281Z,6.00
2024-04-19T04:25:12.796Z,5.82
2024-04-19T04:28:16.364Z,5.50
2024-04-19T04:31:19.943Z,5.60
2024-04-19T04:34:23.902Z,5.60
2024-04-19T04:37:27.510Z,5.50
2024-04-19T04:40:33.355Z,5.93
2024-04-19T04:43:36.858Z,5.70
2024-04-19T04:46:40.716Z,5.35
2024-04-19T04:49:44.323Z,6.03
2024-04-19T04:52:48.122Z,4.60
2024-04-19T04:55:51.710Z,6.05
2024-04-19T04:58:55.210Z,5.97
2024-04-19T05:01:58.760Z,5.88
2024-04-19T05:05:03.473Z,5.27
2024-04-19T05:08:07.425Z,5.30
2024-04-19T05:11:11.029Z,6.05
2024-04-19T05:14:14.572Z,6.60
2024-04-19T05:17:18.169Z,5.53
2024-04-19T05:20:22.677Z,5.27
2024-04-19T05:23:26.321Z,5.63
2024-04-19T05:26:29.904Z,4.95
2024-04-19T05:29:33.407Z,5.28
2024-04-19T05:32:36.954Z,5.00
2024-04-19T05:35:40.612Z,4.80
2024-04-19T05:38:44.297Z,5.13
2024-04-19T05:41:47.861Z,4.90
2024-04-19T05:44:51.489Z,5.47
2024-04-19T05:47:55.199Z,4.03
2024-04-19T05:50:58.829Z,5.20
2024-04-19T05:54:02.496Z,4.93
2024-04-19T05:57:06.172Z,4.40
2024-04-19T06:00:10.071Z,4.57
2024-04-19T06:03:16.921Z,5.18
2024-04-19T06:06:21.298Z,4.27
2024-04-19T06:09:25.274Z,3.90
2024-04-19T06:12:28.882Z,4.40
2024-04-19T06:15:32.534Z,4.43
2024-04-19T06:18:36.319Z,4.45
2024-04-19T06:21:39.907Z,5.00
2024-04-19T06:24:43.547Z,4.63
2024-04-19T06:27:47.232Z,5.50
2024-04-19T06:30:50.964Z,4.70
2024-04-19T06:33:55.239Z,4.90
2024-04-19T06:36:58.915Z,4.73
2024-04-19T06:40:07.328Z,4.90
2024-04-19T06:43:11.662Z,4.00
2024-04-19T06:46:15.315Z,4.00
2024-04-19T06:49:19.189Z,4.18
2024-04-19T06:52:22.860Z,5.17
2024-04-19T06:55:26.659Z,3.87
2024-04-19T06:58:30.565Z,4.05
2024-04-19T07:01:34.857Z,4.00
2024-04-19T07:04:38.971Z,4.28
2024-04-19T07:07:42.714Z,4.70
2024-04-19T07:10:46.350Z,3.70
2024-04-19T07:13:50.011Z,4.00
2024-04-19T07:16:53.745Z,3.75
2024-04-19T07:19:59.121Z,3.92
2024-04-19T07:23:02.803Z,4.10
2024-04-19T07:26:06.476Z,4.53
2024-04-19T07:29:10.449Z,6.68
2024-04-19T07:32:14.087Z,5.25
2024-04-19T07:35:17.767Z,5.28
2024-04-19T07:38:21.385Z,4.70
2024-04-19T07:41:25.472Z,4.97
2024-04-19T07:44:29.050Z,4.25
2024-04-19T07:47:32.660Z,4.22
2024-04-19T07:50:36.370Z,4.53
2024-04-19T07:53:40.419Z,4.80
2024-04-19T07:56:47.686Z,4.60
2024-04-19T07:59:51.236Z,4.30
2024-04-19T08:02:55.348Z,4.80
2024-04-19T08:06:00.620Z,4.07
2024-04-19T08:09:05.227Z,4.67
2024-04-19T08:12:09.686Z,4.13
2024-04-19T08:15:13.531Z,4.82
2024-04-19T08:18:17.123Z,4.20
2024-04-19T08:21:20.749Z,4.45
2024-04-19T08:24:26.038Z,4.53
2024-04-19T08:27:29.796Z,4.20
2024-04-19T08:30:33.367Z,4.47
2024-04-19T08:33:37.098Z,3.95
2024-04-19T08:36:40.657Z,3.45
2024-04-19T08:39:46.688Z,3.77
2024-04-19T08:42:52.727Z,3.90
2024-04-19T08:46:03.608Z,4.05
2024-04-19T08:49:10.211Z,3.58
2024-04-19T08:52:38.383Z,4.00
2024-04-19T08:55:42.670Z,3.70
2024-04-19T08:58:50.728Z,3.70
2024-04-19T09:01:55.042Z,3.65
2024-04-19T09:05:00.769Z,2.60
2024-04-19T09:08:06.412Z,4.03
2024-04-19T09:11:17.041Z,3.50
2024-04-19T09:14:20.638Z,3.90
2024-04-19T09:17:27.079Z,4.10
2024-04-19T09:20:31.355Z,3.33
2024-04-19T09:23:35.798Z,3.60
2024-04-19T09:26:39.495Z,3.47
2024-04-19T09:29:43.708Z,3.60
2024-04-19T09:32:48.736Z,3.63
2024-04-19T09:35:58.733Z,3.90
2024-04-19T09:39:04.266Z,3.92
2024-04-19T09:42:09.676Z,3.60
2024-04-19T09:45:14.662Z,3.77
2024-04-19T09:48:20.760Z,3.80
2024-04-19T09:51:35.903Z,3.45
2024-04-19T09:54:41.024Z,3.33
2024-04-19T09:57:48.132Z,3.63
2024-04-19T10:00:53.550Z,3.90
2024-04-19T10:03:57.531Z,3.65
2024-04-19T10:07:03.109Z,4.57
2024-04-19T10:10:07.228Z,4.50
2024-04-19T10:13:12.663Z,4.43
2024-04-19T10:16:17.181Z,4.17
2024-04-19T10:19:21.004Z,3.58
2024-04-19T10:22:25.376Z,4.25
2024-04-19T10:25:31.378Z,4.07
2024-04-19T10:28:35.767Z,3.80
2024-04-19T10:31:39.405Z,3.80
2024-04-19T10:34:43.450Z,4.07
2024-04-19T10:37:47.218Z,4.15
2024-04-19T10:40:50.818Z,3.10
2024-04-19T10:43:55.155Z,3.53
2024-04-19T10:46:59.101Z,3.63
2024-04-19T10:50:03.601Z,3.22
2024-04-19T10:53:07.864Z,3.30
2024-04-19T10:56:11.568Z,3.10
2024-04-19T10:59:15.283Z,3.20
2024-04-19T11:02:19.787Z,3.27
2024-04-19T11:05:24.892Z,3.22
2024-04-19T11:08:28.703Z,3.65
2024-04-19T11:11:39.599Z,3.30
2024-04-19T11:14:43.421Z,3.13
2024-04-19T11:17:49.451Z,3.10
2024-04-19T11:21:00.602Z,3.45
2024-04-19T11:24:08.982Z,3.42
2024-04-19T11:27:15.668Z,2.92
2024-04-19T11:30:19.426Z,3.03
2024-04-19T11:33:23.213Z,4.30
2024-04-19T11:36:27.633Z,3.13
2024-04-19T11:39:35.666Z,5.55
2024-04-19T11:42:39.849Z,3.75
2024-04-19T11:45:47.487Z,3.93
2024-04-19T11:48:51.939Z,4.13
2024-04-19T11:51:55.958Z,3.17
2024-04-19T11:55:00.467Z,2.92
2024-04-19T11:58:04.777Z,3.38
2024-04-19T12:01:09.209Z,4.10
2024-04-19T12:04:13.571Z,3.87
2024-04-19T12:07:17.429Z,2.50
2024-04-19T12:10:23.289Z,4.50
2024-04-19T12:14:13.299Z,2.33
2024-04-19T12:16:57.849Z,3.17
2024-04-19T12:20:15.500Z,2.43
2024-04-19T12:23:24.371Z,2.22
2024-04-19T12:26:28.396Z,1.98
2024-04-19T12:29:38.525Z,2.15
2024-04-19T12:32:42.770Z,2.77
2024-04-19T12:35:46.757Z,2.60
2024-04-19T12:38:51.008Z,2.38
2024-04-19T12:41:55.448Z,2.40
2024-04-19T12:44:59.146Z,2.08
2024-04-19T12:48:09.962Z,2.00
2024-04-19T12:51:13.647Z,2.33
2024-04-19T12:54:19.823Z,1.98
2024-04-19T12:57:24.863Z,1.90
2024-04-19T13:00:32.223Z,2.58
2024-04-19T13:03:36.058Z,2.20
2024-04-19T13:06:40.255Z,2.20
2024-04-19T13:09:43.973Z,2.05
2024-04-19T13:12:47.571Z,2.10
2024-04-19T13:15:51.345Z,1.75
2024-04-19T13:18:55.595Z,3.47
2024-04-19T13:21:59.363Z,2.10
2024-04-19T13:25:03.009Z,2.10
2024-04-19T13:28:06.823Z,2.20
2024-04-19T13:31:10.472Z,2.13
2024-04-19T13:34:14.024Z,2.10
2024-04-19T13:37:19.518Z,1.80
2024-04-19T13:40:23.095Z,1.60
2024-04-19T13:43:28.604Z,1.80
2024-04-19T13:46:32.297Z,1.85
2024-04-19T13:49:35.990Z,1.90
2024-04-19T13:52:39.548Z,1.80
2024-04-19T13:55:43.208Z,1.75
2024-04-19T13:58:46.951Z,1.45
2024-04-19T14:01:51.012Z,1.70
2024-04-19T14:04:54.811Z,1.80
2024-04-19T14:07:58.475Z,1.70
2024-04-19T14:11:03.182Z,2.20
2024-04-19T14:14:06.748Z,1.88
2024-04-19T14:17:10.306Z,1.52
2024-04-19T14:20:13.888Z,3.33
2024-04-19T14:23:17.993Z,1.70
2024-04-19T14:26:22.725Z,1.55
2024-04-19T14:29:26.278Z,1.70
2024-04-19T14:32:29.886Z,1.73
2024-04-19T14:35:36.740Z,1.80
2024-04-19T14:38:40.420Z,1.83
2024-04-19T14:41:46.311Z,2.00
2024-04-19T14:44:51.362Z,2.17
2024-04-19T14:47:55.033Z,2.08
2024-04-19T14:50:58.723Z,1.70
2024-04-19T14:54:02.554Z,1.70
2024-04-19T14:57:06.605Z,2.00
2024-04-19T15:00:10.467Z,1.98
2024-04-19T15:03:14.035Z,3.30
2024-04-19T15:06:17.829Z,8.43
2024-04-19T15:09:21.566Z,2.83
2024-04-19T15:12:25.223Z,2.38
2024-04-19T15:15:29.060Z,2.63
2024-04-19T15:18:32.803Z,1.90
2024-04-19T15:21:36.503Z,2.40
2024-04-19T15:24:40.037Z,2.30
2024-04-19T15:27:43.737Z,2.65
2024-04-19T15:30:47.428Z,4.72
2024-04-19T15:33:51.154Z,5.72
2024-04-19T15:36:54.768Z,4.00
2024-04-19T15:39:58.536Z,2.77
2024-04-19T15:43:02.289Z,3.88
2024-04-19T15:46:06.206Z,5.00
2024-04-19T15:49:10.088Z,6.72
2024-04-19T15:52:13.931Z,5.23
2024-04-19T15:55:20.583Z,4.20
2024-04-19T15:58:24.342Z,3.60
2024-04-19T16:01:28.128Z,6.07
2024-04-19T16:04:31.854Z,5.63
2024-04-19T16:07:35.490Z,2.97
2024-04-19T16:10:39.621Z,5.10
2024-04-19T16:13:43.163Z,4.75
2024-04-19T16:16:46.813Z,3.30
2024-04-19T16:19:50.498Z,3.22
2024-04-19T16:22:54.068Z,4.67
2024-04-19T16:25:58.149Z,7.90
2024-04-19T16:29:02.382Z,7.78
2024-04-19T16:32:06.204Z,4.45
2024-04-19T16:35:11.379Z,3.78
2024-04-19T16:38:15.061Z,5.20
2024-04-19T16:41:20.355Z,3.77
2024-04-19T16:44:24.272Z,3.17
2024-04-19T16:47:28.442Z,3.47
2024-04-19T16:50:32.026Z,3.17
2024-04-19T16:53:35.649Z,2.80
2024-04-19T16:56:43.228Z,2.63
2024-04-19T16:59:46.834Z,3.35
2024-04-19T17:02:50.390Z,3.50
2024-04-19T17:05:54.091Z,6.10
2024-04-19T17:08:57.615Z,12.90
2024-04-19T17:12:03.899Z,12.57
2024-04-19T17:15:07.656Z,11.23
2024-04-19T17:18:11.803Z,10.70
2024-04-19T17:21:15.390Z,11.57
2024-04-19T17:24:19.961Z,7.10
2024-04-19T17:27:23.604Z,5.40
2024-04-19T17:30:27.173Z,4.40
2024-04-19T17:33:30.986Z,4.50
2024-04-19T17:36:34.659Z,4.47
2024-04-19T17:39:38.358Z,2.97
2024-04-19T17:42:42.156Z,3.00
2024-04-19T17:45:46.395Z,3.72
2024-04-19T17:48:50.024Z,3.97
2024-04-19T17:51:56.027Z,3.83
2024-04-19T17:54:59.677Z,3.20
2024-04-19T17:58:03.472Z,3.43
2024-04-19T18:01:07.187Z,3.55
2024-04-19T18:04:11.029Z,3.10
2024-04-19T18:07:14.650Z,3.50
2024-04-19T18:10:22.681Z,3.60
2024-04-19T18:13:27.065Z,4.13
2024-04-19T18:16:30.569Z,4.30
2024-04-19T18:19:34.337Z,4.22
2024-04-19T18:22:40.382Z,4.00
2024-04-19T18:25:48.791Z,4.20
2024-04-19T18:28:52.304Z,4.40
2024-04-19T18:31:56.268Z,4.75
2024-04-19T18:35:02.758Z,4.10
2024-04-19T18:38:06.421Z,3.88
2024-04-19T18:41:10.172Z,3.50
2024-04-19T18:44:13.726Z,9.10
2024-04-19T18:47:19.859Z,8.07
2024-04-19T18:50:24.187Z,7.20
2024-04-19T18:53:28.984Z,6.68
2024-04-19T18:56:32.531Z,5.17
2024-04-19T18:59:56.091Z,4.13
2024-04-19T19:03:19.544Z,4.50
2024-04-19T19:06:43.019Z,3.90
2024-04-19T19:10:07.655Z,3.90
2024-04-19T19:13:11.135Z,4.90
2024-04-19T19:16:16.048Z,4.43
2024-04-19T19:19:19.530Z,3.60
2024-04-19T19:22:23.558Z,3.53
2024-04-19T19:25:27.329Z,3.60
2024-04-19T19:28:31.145Z,3.70
2024-04-19T19:31:34.951Z,3.40
2024-04-19T19:34:38.729Z,3.40
2024-04-19T19:37:42.586Z,3.97
2024-04-19T19:40:47.185Z,3.22
2024-04-19T19:43:50.692Z,3.77
2024-04-19T19:46:57.120Z,3.93
2024-04-19T19:50:04.472Z,3.83
2024-04-19T19:53:07.945Z,4.60
2024-04-19T19:56:14.346Z,4.72
2024-04-19T19:59:38.169Z,4.17
2024-04-19T20:03:00.044Z,4.07
2024-04-19T20:06:03.966Z,4.22
2024-04-19T20:09:07.794Z,3.80
2024-04-19T20:12:11.639Z,4.38
2024-04-19T20:15:15.422Z,4.13
2024-04-19T20:18:20.287Z,4.00
2024-04-19T20:21:23.945Z,4.20
2024-04-19T20:24:27.802Z,4.00
2024-04-19T20:27:31.383Z,3.78
2024-04-19T20:30:35.133Z,3.70
2024-04-19T20:33:39.228Z,4.00
2024-04-19T20:36:42.918Z,4.65
2024-04-19T20:39:46.475Z,4.53
2024-04-19T20:42:53.729Z,4.50
2024-04-19T20:46:02.888Z,4.20
2024-04-19T20:49:06.531Z,3.97
2024-04-19T20:52:11.281Z,4.63
2024-04-19T20:55:19.339Z,4.35
2024-04-19T20:58:22.897Z,4.15
2024-04-19T21:01:27.022Z,4.20
2024-04-19T21:04:30.666Z,4.70
2024-04-19T21:07:35.438Z,4.95
2024-04-19T21:10:40.347Z,5.32
2024-04-19T21:13:43.982Z,4.97
2024-04-19T21:16:50.103Z,5.00
2024-04-19T21:19:53.764Z,5.07
2024-04-19T21:22:57.313Z,4.93
2024-04-19T21:26:05.841Z,5.05
2024-04-19T21:29:10.068Z,5.03
2024-04-19T21:32:13.678Z,5.13
2024-04-19T21:35:17.287Z,5.03
2024-04-19T21:38:22.010Z,4.28
2024-04-19T21:41:25.515Z,4.93
2024-04-19T21:44:29.085Z,5.32
2024-04-19T21:47:32.736Z,4.40
2024-04-19T21:50:36.335Z,4.57
2024-04-19T21:53:40.397Z,4.80
2024-04-19T21:56:43.986Z,4.53
2024-04-19T21:59:47.453Z,5.22
2024-04-19T22:02:51.123Z,4.53
2024-04-19T22:05:54.696Z,5.10
2024-04-19T22:08:58.196Z,5.22
2024-04-19T22:12:02.355Z,5.30
2024-04-19T22:15:06.283Z,4.97
2024-04-19T22:18:09.863Z,5.40
2024-04-19T22:21:14.517Z,5.30
2024-04-19T22:24:18.384Z,5.38
2024-04-19T22:27:21.933Z,5.35
2024-04-19T22:30:25.527Z,5.10
2024-04-19T22:33:29.422Z,5.10
2024-04-19T22:36:33.034Z,5.10
2024-04-19T22:39:37.729Z,4.93
2024-04-19T22:42:41.520Z,5.32
2024-04-19T22:45:45.147Z,5.32
2024-04-19T22:48:48.702Z,5.00
2024-04-19T22:51:53.021Z,5.57
2024-04-19T22:54:56.623Z,5.20
2024-04-19T22:58:00.376Z,5.75
2024-04-19T23:01:06.738Z,5.30
2024-04-19T23:04:10.495Z,5.90
2024-04-19T23:07:14.153Z,5.50
2024-04-19T23:10:17.869Z,5.78
2024-04-19T23:13:21.363Z,4.85
2024-04-19T23:16:25.184Z,5.53
2024-04-19T23:19:28.763Z,5.90
2024-04-19T23:22:33.719Z,5.53
2024-04-19T23:25:37.280Z,7.75
2024-04-19T23:28:42.194Z,7.88
2024-04-19T23:31:45.823Z,5.88
2024-04-19T23:34:49.463Z,6.07
2024-04-19T23:37:53.017Z,5.88
2024-04-19T23:40:57.166Z,5.13
2024-04-19T23:44:00.788Z,5.75
2024-04-19T23:47:08.813Z,6.22
2024-04-19T23:50:12.462Z,5.73
2024-04-19T23:53:15.974Z,5.50
2024-04-19T23:56:19.625Z,5.90
2024-04-19T23:59:23.137Z,6.15
